x

Tanner Bank - 121nm West Of San Diego, Ca (46047) Wave Buoy

12:50 - Sat 23rd Jul 2016 All times are PDT. -7 hours from GMT.

  • Sig Wave height 10.8ft
  • Swell Direction
  • Peak Period 8s
  • Average Period 7s
  • Wind
    25mph, 31mph gusts
  • Sea Temp 63°f
  • Air Temp 65°f
  • Sea Pressure 1010.4mb
  • Tanner Bank - 121nm West Of San Diego, Ca
  • Tanner Bank - 121nm West Of San Diego, Ca

More Historic Weather Station data

Upgrade to MSW Pro to gain access to the past 30 days of data for over 8000 Wavebouys and Weather Stations around the globe.

Join Pro

Comparision Forecast

View Surf forecast
   
sam. 07/23 12:50 11ft 8s 7s 25 31 mph 1010.4mb 63f 65f
ven. 07/22 11:50 9ft 8s 6s 22 29 mph 1011mb 63f 66f
10:50 9.5ft 8s 7s 27 34 mph 1010.8mb 63f 66f
9:50 8ft 8s 6s 25 31 mph 1010.8mb 63f 66f
8:50 7.5ft 8s 6s 27 31 mph 1010.6mb 63f 66f
7:50 7ft 8s 6s 22 27 mph 1011.1mb 63f 65f
6:50 6.5ft 8s 6s 20 25 mph 1011.4mb 63f 65f
5:50 7ft 8s 6s 20 22 mph 1011.9mb 63f 64f
4:50 7ft 8s 6s 20 25 mph 1012.1mb 63f 64f
3:50 7.5ft 8s 6s 20 25 mph 1012.6mb 63f 64f
2:50 8.5ft 8s 7s 20 25 mph 1013.4mb 63f 64f
1:50 7.5ft 8s 6s 20 25 mph 1013.9mb 63f 64f
12:50 8.5ft 8s 7s 18 22 mph 1014.6mb 63f 64f
11:50 8ft 8s 6s 22 27 mph 1014.6mb 63f 64f
10:50 7ft 8s 6s 22 27 mph 1014.5mb 63f 64f
9:50 6.5ft 8s 6s 22 27 mph 1014.4mb 63f 63f
8:50 6.5ft 8s 6s 22 27 mph 1014.5mb 63f 63f
7:50 6ft 8s 6s 22 27 mph 1014.3mb 62f 63f
6:50 6.5ft 8s 6s 20 22 mph 1014.2mb 62f 63f
5:50 7ft 8s 6s 20 25 mph 1013.4mb 62f 63f
4:50 7ft 8s 6s 18 22 mph 1013.5mb 63f 63f
3:50 7ft 8s 6s 20 25 mph 1013.5mb 63f 64f
2:50 8ft 8s 6s 18 22 mph 1013.5mb 63f 64f
1:50 7.5ft 7s 6s 20 25 mph 1013.7mb 63f 64f
12:50 8ft 8s 6s 22 27 mph 1013.9mb 63f 64f
jeu. 07/21 11:50 7.5ft 8s 6s 20 25 mph 1014.5mb 64f 64f
10:50 6.5ft 8s 6s 22 27 mph 1014.6mb 64f 64f
9:50 6ft 7s 6s 22 27 mph 1014.4mb 64f 64f
8:50 6ft 15s 6s 22 27 mph 1014.3mb 64f 64f
7:50 6ft 8s 5s 22 25 mph 1014.4mb 64f 64f
6:50 6ft 7s 5s 20 25 mph 1014.5mb 63f 63f
5:50 6ft 7s 6s 20 25 mph 1014.7mb 63f 63f
4:50 6.5ft 8s 6s 20 22 mph 1015mb 63f 62f
3:50 7ft 8s 6s 20 25 mph 1015mb 63f 62f
2:50 6ft 8s 6s 18 22 mph 1015.6mb 63f 62f
1:50 6.5ft 8s 6s 16 18 mph 1016mb 63f 62f
12:50 6.5ft 8s 6s 16 20 mph 1016.3mb 63f 62f
11:50 6.5ft 8s 6s 16 20 mph 1016.2mb 63f 63f
10:50 6ft 7s 6s 16 20 mph 1016mb 63f 63f
9:50 6ft 7s 6s 18 20 mph 1015.6mb 63f 63f
8:50 5.5ft 7s 5s 20 25 mph 1015mb 63f 63f
7:50 5.5ft 7s 6s 20 25 mph 1014.8mb 63f 63f
6:50 6ft 15s 6s 18 20 mph 1014.6mb 62f 63f
5:50 6ft 7s 6s 18 22 mph 1014.3mb 62f 63f
4:50 6ft 15s 6s 16 22 mph 1014.4mb 62f 63f
3:50 6ft 7s 6s 18 22 mph 1014mb 63f 63f
2:50 6.5ft 7s 6s 18 25 mph 1014.1mb 63f 63f
1:50 6.5ft 7s 6s 18 22 mph 1014.3mb 63f 63f
12:50 7ft 7s 6s 20 22 mph 1014.5mb 64f 63f
mer. 07/20 11:50 7.5ft 7s 6s 18 22 mph 1014.7mb 64f 63f
10:50 7ft 7s 6s 22 27 mph 1014.5mb 64f 63f
9:50 6ft 6s 6s 22 25 mph 1014.4mb 64f 63f
8:50 6ft 16s 6s 20 25 mph 1014.3mb 64f 63f
7:50 6ft 6s 5s 22 25 mph 1014.1mb 64f 63f
6:50 6ft 15s 5s 25 29 mph 1013.9mb 63f 63f
5:50 5.5ft 11s 5s 22 27 mph 1014.3mb 63f 63f
4:50 6ft 7s 6s 20 25 mph 1014.7mb 63f 63f
3:50 7ft 7s 6s 20 25 mph 1014.8mb 63f 62f
2:50 6.5ft 7s 6s 18 22 mph 1015.3mb 63f 62f
1:50 6.5ft 7s 6s 18 20 mph 1015.5mb 63f 62f
12:50 6.5ft 8s 6s 18 20 mph 1016mb 63f 62f
11:50 7ft 8s 6s 18 20 mph 1016mb 63f 62f
10:50 7ft 7s 6s 16 18 mph 1016.3mb 63f 62f
9:50 7ft 8s 6s 18 20 mph 1015.7mb 63f 62f
8:50 6ft 8s 6s 18 20 mph 1015.6mb 63f 62f
7:50 6ft 8s 6s 18 20 mph 1015.2mb 63f 62f
6:50 6.5ft 11s 6s 18 22 mph 1014.8mb 63f 62f
5:50 7ft 11s 6s 18 22 mph 1014.9mb 63f 62f
4:50 7ft 11s 6s 22 25 mph 1014.3mb 63f 62f
3:50 7ft 11s 6s 20 25 mph 1014.9mb 63f 62f
2:50 7.5ft 8s 6s 20 25 mph 1015.1mb 63f 62f
1:50 8ft 8s 6s 18 20 mph 1015.7mb 63f 62f
12:50 8ft 12s 7s 18 22 mph 1015.8mb 63f 62f
mar. 07/19 11:50 8ft 7s 6s 18 22 mph 1016.1mb 63f 62f
10:50 7.5ft 8s 6s 20 22 mph 1016mb 63f 62f
9:50 7ft 13s 6s 20 25 mph 1015.7mb 63f 62f
8:50 7ft 8s 6s 22 27 mph 1014.9mb 63f 62f
7:50 7ft 13s 6s 22 27 mph 1014.7mb 64f 62f
6:50 6ft 12s 6s 22 29 mph 1014.7mb 64f 62f
5:50 6.5ft 13s 6s 25 27 mph 1014.7mb 63f 61f
4:50 6.5ft 13s 6s 20 25 mph 1015.4mb 63f 61f
3:50 6.5ft 12s 6s 20 25 mph 1015.9mb 63f 60f
2:50 6.5ft 6s 6s 20 25 mph 1016.7mb 63f 60f
1:50 7ft 7s 6s 18 22 mph 1017mb 63f 60f
12:50 7ft 7s 6s 18 20 mph 1017.5mb 63f 60f
11:50 7ft 7s 6s 18 22 mph 1017.6mb 63f 60f
10:50 6.5ft 16s 6s 16 20 mph 1017.4mb 63f 60f
9:50 6ft 16s 6s 16 20 mph 1017.3mb 63f 60f